sensor_id;sensor_type;location;lat;lon;timestamp;pressure;altitude;pressure_sealevel;temperature
76583;BMP280;65462;52.148;7.940;2023-02-15T00:01:30;102105.88;;;4.50
76583;BMP280;65462;52.148;7.940;2023-02-15T00:03:55;102108.28;;;4.52
76583;BMP280;65462;52.148;7.940;2023-02-15T00:06:21;102108.16;;;4.46
76583;BMP280;65462;52.148;7.940;2023-02-15T00:08:47;102113.66;;;4.45
76583;BMP280;65462;52.148;7.940;2023-02-15T00:11:14;102112.84;;;4.44
76583;BMP280;65462;52.148;7.940;2023-02-15T00:13:41;102108.63;;;4.43
76583;BMP280;65462;52.148;7.940;2023-02-15T00:16:09;102110.72;;;4.41
76583;BMP280;65462;52.148;7.940;2023-02-15T00:18:34;102106.28;;;4.42
76583;BMP280;65462;52.148;7.940;2023-02-15T00:21:07;102100.72;;;4.38
76583;BMP280;65462;52.148;7.940;2023-02-15T00:23:32;102101.19;;;4.35
76583;BMP280;65462;52.148;7.940;2023-02-15T00:26:10;102103.25;;;4.33
76583;BMP280;65462;52.148;7.940;2023-02-15T00:28:36;102096.91;;;4.29
76583;BMP280;65462;52.148;7.940;2023-02-15T00:31:06;102097.13;;;4.28
76583;BMP280;65462;52.148;7.940;2023-02-15T00:33:31;102095.19;;;4.23
76583;BMP280;65462;52.148;7.940;2023-02-15T00:35:57;102089.41;;;4.21
76583;BMP280;65462;52.148;7.940;2023-02-15T00:38:23;102089.88;;;4.18
76583;BMP280;65462;52.148;7.940;2023-02-15T00:40:56;102094.56;;;4.16
76583;BMP280;65462;52.148;7.940;2023-02-15T00:43:21;102092.44;;;4.13
76583;BMP280;65462;52.148;7.940;2023-02-15T00:45:47;102088.91;;;4.08
76583;BMP280;65462;52.148;7.940;2023-02-15T00:48:12;102094.84;;;4.03
76583;BMP280;65462;52.148;7.940;2023-02-15T00:50:38;102090.16;;;4.05
76583;BMP280;65462;52.148;7.940;2023-02-15T00:53:03;102084.38;;;4.03
76583;BMP280;65462;52.148;7.940;2023-02-15T00:55:28;102077.78;;;4.01
76583;BMP280;65462;52.148;7.940;2023-02-15T00:57:54;102077.47;;;3.97
76583;BMP280;65462;52.148;7.940;2023-02-15T01:00:19;102087.13;;;3.97
76583;BMP280;65462;52.148;7.940;2023-02-15T01:02:44;102078.72;;;3.95
76583;BMP280;65462;52.148;7.940;2023-02-15T01:05:09;102082.06;;;3.90
76583;BMP280;65462;52.148;7.940;2023-02-15T01:07:35;102077.31;;;3.87
76583;BMP280;65462;52.148;7.940;2023-02-15T01:10:00;102075.16;;;3.84
76583;BMP280;65462;52.148;7.940;2023-02-15T01:12:25;102076.16;;;3.83
76583;BMP280;65462;52.148;7.940;2023-02-15T01:14:50;102065.38;;;3.79
76583;BMP280;65462;52.148;7.940;2023-02-15T01:17:16;102071.88;;;3.65
76583;BMP280;65462;52.148;7.940;2023-02-15T01:19:41;102061.22;;;3.67
76583;BMP280;65462;52.148;7.940;2023-02-15T01:22:06;102063.84;;;3.67
76583;BMP280;65462;52.148;7.940;2023-02-15T01:24:32;102057.00;;;3.66
76583;BMP280;65462;52.148;7.940;2023-02-15T01:26:57;102057.25;;;3.64
76583;BMP280;65462;52.148;7.940;2023-02-15T01:29:22;102056.22;;;3.65
76583;BMP280;65462;52.148;7.940;2023-02-15T01:31:47;102037.94;;;3.54
76583;BMP280;65462;52.148;7.940;2023-02-15T01:34:13;102061.09;;;3.62
76583;BMP280;65462;52.148;7.940;2023-02-15T01:36:38;102066.78;;;3.59
76583;BMP280;65462;52.148;7.940;2023-02-15T01:39:03;102054.19;;;3.56
76583;BMP280;65462;52.148;7.940;2023-02-15T01:41:28;102049.41;;;3.53
76583;BMP280;65462;52.148;7.940;2023-02-15T01:46:23;102041.97;;;3.45
76583;BMP280;65462;52.148;7.940;2023-02-15T01:49:11;102047.41;;;3.43
76583;BMP280;65462;52.148;7.940;2023-02-15T01:51:40;102039.34;;;3.45
76583;BMP280;65462;52.148;7.940;2023-02-15T01:54:17;102042.63;;;3.40
76583;BMP280;65462;52.148;7.940;2023-02-15T01:56:44;102037.88;;;3.37
76583;BMP280;65462;52.148;7.940;2023-02-15T01:59:15;102030.63;;;3.39
76583;BMP280;65462;52.148;7.940;2023-02-15T02:01:41;102024.00;;;3.37
76583;BMP280;65462;52.148;7.940;2023-02-15T02:07:03;102029.94;;;3.32
76583;BMP280;65462;52.148;7.940;2023-02-15T02:09:29;102006.78;;;3.36
76583;BMP280;65462;52.148;7.940;2023-02-15T02:11:55;102018.69;;;3.31
76583;BMP280;65462;52.148;7.940;2023-02-15T02:14:20;102014.47;;;3.30
76583;BMP280;65462;52.148;7.940;2023-02-15T02:33:47;101997.63;;;3.10
76583;BMP280;65462;52.148;7.940;2023-02-15T02:42:18;101995.34;;;3.02
76583;BMP280;65462;52.148;7.940;2023-02-15T02:44:48;101992.97;;;3.00
76583;BMP280;65462;52.148;7.940;2023-02-15T02:47:21;101997.84;;;2.97
76583;BMP280;65462;52.148;7.940;2023-02-15T02:49:52;102001.81;;;2.99
76583;BMP280;65462;52.148;7.940;2023-02-15T02:55:04;101999.31;;;2.93
76583;BMP280;65462;52.148;7.940;2023-02-15T02:57:32;101988.09;;;2.92
76583;BMP280;65462;52.148;7.940;2023-02-15T02:59:58;101999.22;;;2.88
76583;BMP280;65462;52.148;7.940;2023-02-15T03:02:32;101991.50;;;2.81
76583;BMP280;65462;52.148;7.940;2023-02-15T03:05:03;101998.31;;;2.82
76583;BMP280;65462;52.148;7.940;2023-02-15T03:07:31;101993.00;;;2.77
76583;BMP280;65462;52.148;7.940;2023-02-15T03:10:00;101995.94;;;2.81
76583;BMP280;65462;52.148;7.940;2023-02-15T03:12:33;101992.19;;;2.77
76583;BMP280;65462;52.148;7.940;2023-02-15T03:15:26;101988.22;;;2.74
76583;BMP280;65462;52.148;7.940;2023-02-15T03:18:13;101985.25;;;2.70
76583;BMP280;65462;52.148;7.940;2023-02-15T03:20:39;101981.06;;;2.69
76583;BMP280;65462;52.148;7.940;2023-02-15T03:23:10;101979.47;;;2.68
76583;BMP280;65462;52.148;7.940;2023-02-15T03:25:40;101976.84;;;2.68
76583;BMP280;65462;52.148;7.940;2023-02-15T03:28:10;101972.88;;;2.66
76583;BMP280;65462;52.148;7.940;2023-02-15T03:30:38;101965.50;;;2.63
76583;BMP280;65462;52.148;7.940;2023-02-15T03:33:04;101962.38;;;2.61
76583;BMP280;65462;52.148;7.940;2023-02-15T03:35:37;101962.38;;;2.61
76583;BMP280;65462;52.148;7.940;2023-02-15T03:38:06;101960.78;;;2.60
76583;BMP280;65462;52.148;7.940;2023-02-15T03:40:38;101951.81;;;2.56
76583;BMP280;65462;52.148;7.940;2023-02-15T03:49:01;101954.06;;;2.52
76583;BMP280;65462;52.148;7.940;2023-02-15T03:51:29;101961.13;;;2.52
76583;BMP280;65462;52.148;7.940;2023-02-15T03:54:02;101960.09;;;2.53
76583;BMP280;65462;52.148;7.940;2023-02-15T03:56:27;101954.88;;;2.53
76583;BMP280;65462;52.148;7.940;2023-02-15T03:58:53;101953.72;;;2.49
76583;BMP280;65462;52.148;7.940;2023-02-15T04:04:26;101952.00;;;2.43
76583;BMP280;65462;52.148;7.940;2023-02-15T04:06:53;101954.63;;;2.43
76583;BMP280;65462;52.148;7.940;2023-02-15T04:09:18;101948.84;;;2.41
76583;BMP280;65462;52.148;7.940;2023-02-15T04:12:02;101946.44;;;2.39
76583;BMP280;65462;52.148;7.940;2023-02-15T04:14:27;101953.72;;;2.37
76583;BMP280;65462;52.148;7.940;2023-02-15T04:17:11;101963.34;;;2.37
76583;BMP280;65462;52.148;7.940;2023-02-15T04:19:37;101958.56;;;2.34
76583;BMP280;65462;52.148;7.940;2023-02-15T04:22:21;101960.16;;;2.35
76583;BMP280;65462;52.148;7.940;2023-02-15T04:25:05;101959.06;;;2.42
76583;BMP280;65462;52.148;7.940;2023-02-15T04:27:37;101960.53;;;2.38
76583;BMP280;65462;52.148;7.940;2023-02-15T04:30:03;101959.16;;;2.36
76583;BMP280;65462;52.148;7.940;2023-02-15T04:32:29;101947.13;;;2.35
76583;BMP280;65462;52.148;7.940;2023-02-15T04:34:54;101944.88;;;2.38
76583;BMP280;65462;52.148;7.940;2023-02-15T04:37:19;101940.66;;;2.37
76583;BMP280;65462;52.148;7.940;2023-02-15T04:39:44;101947.94;;;2.35
76583;BMP280;65462;52.148;7.940;2023-02-15T04:42:10;101942.47;;;2.37
76583;BMP280;65462;52.148;7.940;2023-02-15T04:44:35;101941.31;;;2.33
76583;BMP280;65462;52.148;7.940;2023-02-15T04:47:00;101937.72;;;2.34
76583;BMP280;65462;52.148;7.940;2023-02-15T04:49:25;101930.47;;;2.36
76583;BMP280;65462;52.148;7.940;2023-02-15T04:51:51;101938.97;;;2.31
76583;BMP280;65462;52.148;7.940;2023-02-15T04:54:16;101931.63;;;2.28
76583;BMP280;65462;52.148;7.940;2023-02-15T04:56:42;101940.56;;;2.32
76583;BMP280;65462;52.148;7.940;2023-02-15T04:59:10;101934.22;;;2.40
76583;BMP280;65462;52.148;7.940;2023-02-15T05:01:35;101938.31;;;2.36
76583;BMP280;65462;52.148;7.940;2023-02-15T05:04:00;101930.34;;;2.31
76583;BMP280;65462;52.148;7.940;2023-02-15T05:06:26;101927.16;;;2.29
76583;BMP280;65462;52.148;7.940;2023-02-15T05:08:51;101923.88;;;2.33
76583;BMP280;65462;52.148;7.940;2023-02-15T05:11:17;101923.53;;;2.30
76583;BMP280;65462;52.148;7.940;2023-02-15T05:13:42;101912.91;;;2.20
76583;BMP280;65462;52.148;7.940;2023-02-15T05:16:07;101923.53;;;2.30
76583;BMP280;65462;52.148;7.940;2023-02-15T05:18:33;101918.44;;;2.23
76583;BMP280;65462;52.148;7.940;2023-02-15T05:20:58;101922.88;;;2.23
76583;BMP280;65462;52.148;7.940;2023-02-15T05:23:23;101912.66;;;2.21
76583;BMP280;65462;52.148;7.940;2023-02-15T05:25:49;101908.81;;;2.24
76583;BMP280;65462;52.148;7.940;2023-02-15T05:28:34;101902.25;;;2.21
76583;BMP280;65462;52.148;7.940;2023-02-15T05:31:26;101900.44;;;2.22
76583;BMP280;65462;52.148;7.940;2023-02-15T05:33:51;101902.25;;;2.21
76583;BMP280;65462;52.148;7.940;2023-02-15T05:36:17;101898.84;;;2.21
76583;BMP280;65462;52.148;7.940;2023-02-15T05:38:42;101898.84;;;2.21
76583;BMP280;65462;52.148;7.940;2023-02-15T05:41:08;101904.41;;;2.24
76583;BMP280;65462;52.148;7.940;2023-02-15T05:43:34;101905.66;;;2.22
76583;BMP280;65462;52.148;7.940;2023-02-15T05:46:00;101906.56;;;2.15
76583;BMP280;65462;52.148;7.940;2023-02-15T05:48:26;101900.75;;;2.13
76583;BMP280;65462;52.148;7.940;2023-02-15T05:51:08;101898.13;;;2.13
76583;BMP280;65462;52.148;7.940;2023-02-15T05:53:36;101900.53;;;2.15
76583;BMP280;65462;52.148;7.940;2023-02-15T05:56:02;101905.19;;;2.13
76583;BMP280;65462;52.148;7.940;2023-02-15T05:58:33;101895.97;;;2.10
76583;BMP280;65462;52.148;7.940;2023-02-15T06:00:59;101890.22;;;2.08
76583;BMP280;65462;52.148;7.940;2023-02-15T06:03:25;101890.66;;;2.05
76583;BMP280;65462;52.148;7.940;2023-02-15T06:05:51;101889.84;;;2.05
76583;BMP280;65462;52.148;7.940;2023-02-15T06:08:17;101886.91;;;2.01
76583;BMP280;65462;52.148;7.940;2023-02-15T06:10:42;101891.66;;;2.04
76583;BMP280;65462;52.148;7.940;2023-02-15T06:13:08;101893.38;;;2.10
76583;BMP280;65462;52.148;7.940;2023-02-15T06:15:33;101890.78;;;2.10
76583;BMP280;65462;52.148;7.940;2023-02-15T06:17:59;101893.03;;;2.07
76583;BMP280;65462;52.148;7.940;2023-02-15T06:20:24;101898.59;;;2.10
76583;BMP280;65462;52.148;7.940;2023-02-15T06:22:49;101910.50;;;2.06
76583;BMP280;65462;52.148;7.940;2023-02-15T06:25:15;101905.72;;;2.03
76583;BMP280;65462;52.148;7.940;2023-02-15T06:27:43;101900.94;;;2.00
76583;BMP280;65462;52.148;7.940;2023-02-15T06:30:10;101908.19;;;1.98
76583;BMP280;65462;52.148;7.940;2023-02-15T06:32:35;101890.75;;;1.99
76583;BMP280;65462;52.148;7.940;2023-02-15T06:35:00;101887.81;;;1.95
76583;BMP280;65462;52.148;7.940;2023-02-15T06:37:26;101906.59;;;1.97
76583;BMP280;65462;52.148;7.940;2023-02-15T06:39:51;101908.75;;;2.00
76583;BMP280;65462;52.148;7.940;2023-02-15T06:42:17;101901.38;;;1.97
76583;BMP280;65462;52.148;7.940;2023-02-15T06:44:43;101905.22;;;1.95
76583;BMP280;65462;52.148;7.940;2023-02-15T06:47:08;101901.28;;;1.92
76583;BMP280;65462;52.148;7.940;2023-02-15T06:49:34;101888.91;;;1.88
76583;BMP280;65462;52.148;7.940;2023-02-15T06:51:59;101903.88;;;1.92
76583;BMP280;65462;52.148;7.940;2023-02-15T06:54:24;101908.44;;;1.97
76583;BMP280;65462;52.148;7.940;2023-02-15T06:56:53;101898.88;;;1.91
76583;BMP280;65462;52.148;7.940;2023-02-15T06:59:18;101906.84;;;1.96
76583;BMP280;65462;52.148;7.940;2023-02-15T07:01:43;101906.47;;;1.92
76583;BMP280;65462;52.148;7.940;2023-02-15T07:04:09;101904.78;;;1.98
76583;BMP280;65462;52.148;7.940;2023-02-15T07:06:34;101909.28;;;1.91
76583;BMP280;65462;52.148;7.940;2023-02-15T07:09:00;101907.72;;;1.90
76583;BMP280;65462;52.148;7.940;2023-02-15T07:11:25;101897.66;;;1.93
76583;BMP280;65462;52.148;7.940;2023-02-15T07:14:09;101903.53;;;1.89
76583;BMP280;65462;52.148;7.940;2023-02-15T07:16:35;101903.75;;;1.87
76583;BMP280;65462;52.148;7.940;2023-02-15T07:19:00;101911.78;;;1.86
76583;BMP280;65462;52.148;7.940;2023-02-15T07:21:25;101905.81;;;1.85
76583;BMP280;65462;52.148;7.940;2023-02-15T07:23:51;101898.56;;;1.87
76583;BMP280;65462;52.148;7.940;2023-02-15T07:26:16;101901.19;;;1.99
76583;BMP280;65462;52.148;7.940;2023-02-15T07:28:41;101901.06;;;1.94
76583;BMP280;65462;52.148;7.940;2023-02-15T07:31:06;101896.06;;;1.92
76583;BMP280;65462;52.148;7.940;2023-02-15T07:33:33;101899.47;;;1.93
76583;BMP280;65462;52.148;7.940;2023-02-15T07:36:00;101899.56;;;1.86
76583;BMP280;65462;52.148;7.940;2023-02-15T07:38:31;101895.38;;;1.85
76583;BMP280;65462;52.148;7.940;2023-02-15T07:41:01;101891.41;;;1.83
76583;BMP280;65462;52.148;7.940;2023-02-15T07:43:27;101883.03;;;1.81
76583;BMP280;65462;52.148;7.940;2023-02-15T07:45:52;101882.81;;;1.82
76583;BMP280;65462;52.148;7.940;2023-02-15T07:48:18;101876.69;;;1.77
76583;BMP280;65462;52.148;7.940;2023-02-15T07:50:43;101879.41;;;1.82
76583;BMP280;65462;52.148;7.940;2023-02-15T07:53:09;101881.00;;;1.83
76583;BMP280;65462;52.148;7.940;2023-02-15T07:55:34;101864.00;;;1.80
76583;BMP280;65462;52.148;7.940;2023-02-15T07:58:00;101859.34;;;1.82
76583;BMP280;65462;52.148;7.940;2023-02-15T08:00:25;101881.88;;;1.88
76583;BMP280;65462;52.148;7.940;2023-02-15T08:02:53;101862.41;;;1.91
76583;BMP280;65462;52.148;7.940;2023-02-15T08:05:37;101852.31;;;1.94
76583;BMP280;65462;52.148;7.940;2023-02-15T08:08:03;101849.75;;;2.06
76583;BMP280;65462;52.148;7.940;2023-02-15T08:10:28;101851.69;;;2.10
76583;BMP280;65462;52.148;7.940;2023-02-15T08:13:12;101865.84;;;2.14
76583;BMP280;65462;52.148;7.940;2023-02-15T08:15:37;101851.56;;;2.17
76583;BMP280;65462;52.148;7.940;2023-02-15T08:18:03;101846.72;;;2.21
76583;BMP280;65462;52.148;7.940;2023-02-15T08:20:28;101836.88;;;2.23
76583;BMP280;65462;52.148;7.940;2023-02-15T08:22:53;101848.88;;;2.35
76583;BMP280;65462;52.148;7.940;2023-02-15T08:25:19;101848.75;;;2.42
76583;BMP280;65462;52.148;7.940;2023-02-15T08:27:44;101846.59;;;2.50
76583;BMP280;65462;52.148;7.940;2023-02-15T08:30:09;101845.22;;;2.59
76583;BMP280;65462;52.148;7.940;2023-02-15T08:32:35;101851.09;;;2.66
76583;BMP280;65462;52.148;7.940;2023-02-15T08:35:00;101846.53;;;2.73
76583;BMP280;65462;52.148;7.940;2023-02-15T08:37:25;101845.63;;;2.80
76583;BMP280;65462;52.148;7.940;2023-02-15T08:39:51;101843.44;;;2.88
76583;BMP280;65462;52.148;7.940;2023-02-15T08:42:16;101846.47;;;2.97
76583;BMP280;65462;52.148;7.940;2023-02-15T08:44:42;101842.22;;;3.07
76583;BMP280;65462;52.148;7.940;2023-02-15T08:47:07;101841.63;;;3.17
76583;BMP280;65462;52.148;7.940;2023-02-15T08:49:32;101834.69;;;3.22
76583;BMP280;65462;52.148;7.940;2023-02-15T08:51:57;101834.22;;;3.25
76583;BMP280;65462;52.148;7.940;2023-02-15T08:54:23;101829.97;;;3.36
76583;BMP280;65462;52.148;7.940;2023-02-15T08:56:48;101826.75;;;3.46
76583;BMP280;65462;52.148;7.940;2023-02-15T08:59:19;101815.44;;;3.57
76583;BMP280;65462;52.148;7.940;2023-02-15T09:01:45;101806.44;;;3.64
76583;BMP280;65462;52.148;7.940;2023-02-15T09:04:10;101816.22;;;3.74
76583;BMP280;65462;52.148;7.940;2023-02-15T09:06:38;101804.56;;;3.81
76583;BMP280;65462;52.148;7.940;2023-02-15T09:09:04;101808.41;;;3.91
76583;BMP280;65462;52.148;7.940;2023-02-15T09:11:33;101812.63;;;3.97
76583;BMP280;65462;52.148;7.940;2023-02-15T09:14:04;101798.94;;;4.06
76583;BMP280;65462;52.148;7.940;2023-02-15T09:16:32;101804.78;;;4.13
76583;BMP280;65462;52.148;7.940;2023-02-15T09:18:59;101805.63;;;4.19
76583;BMP280;65462;52.148;7.940;2023-02-15T09:21:27;101807.97;;;4.20
76583;BMP280;65462;52.148;7.940;2023-02-15T09:23:56;101815.34;;;4.23
76583;BMP280;65462;52.148;7.940;2023-02-15T09:26:23;101809.47;;;4.33
76583;BMP280;65462;52.148;7.940;2023-02-15T09:28:52;101807.72;;;4.38
76583;BMP280;65462;52.148;7.940;2023-02-15T09:31:20;101807.72;;;4.38
76583;BMP280;65462;52.148;7.940;2023-02-15T09:33:47;101802.78;;;4.42
76583;BMP280;65462;52.148;7.940;2023-02-15T09:36:22;101803.38;;;4.49
76583;BMP280;65462;52.148;7.940;2023-02-15T09:38:54;101802.13;;;4.52
76583;BMP280;65462;52.148;7.940;2023-02-15T09:47:21;101804.03;;;4.83
76583;BMP280;65462;52.148;7.940;2023-02-15T09:53:02;101797.94;;;5.04
76583;BMP280;65462;52.148;7.940;2023-02-15T09:55:55;101804.94;;;5.25
76583;BMP280;65462;52.148;7.940;2023-02-15T10:06:44;101811.06;;;5.72
76583;BMP280;65462;52.148;7.940;2023-02-15T10:09:42;101805.38;;;5.81
76583;BMP280;65462;52.148;7.940;2023-02-15T10:15:19;101803.34;;;5.98
76583;BMP280;65462;52.148;7.940;2023-02-15T10:20:52;101801.41;;;6.25
76583;BMP280;65462;52.148;7.940;2023-02-15T10:26:22;101806.72;;;6.45
76583;BMP280;65462;52.148;7.940;2023-02-15T10:31:37;101815.22;;;6.77
76583;BMP280;65462;52.148;7.940;2023-02-15T10:34:19;101816.00;;;6.88
76583;BMP280;65462;52.148;7.940;2023-02-15T10:45:27;101806.81;;;7.31
76583;BMP280;65462;52.148;7.940;2023-02-15T10:48:05;101806.81;;;7.41
76583;BMP280;65462;52.148;7.940;2023-02-15T11:07:08;101808.75;;;8.04
76583;BMP280;65462;52.148;7.940;2023-02-15T11:09:47;101802.41;;;8.10
76583;BMP280;65462;52.148;7.940;2023-02-15T11:12:17;101807.38;;;8.22
76583;BMP280;65462;52.148;7.940;2023-02-15T11:17:53;101787.06;;;8.33
76583;BMP280;65462;52.148;7.940;2023-02-15T11:20:35;101799.13;;;8.39
76583;BMP280;65462;52.148;7.940;2023-02-15T11:23:02;101786.38;;;8.56
76583;BMP280;65462;52.148;7.940;2023-02-15T11:25:33;101782.31;;;8.68
76583;BMP280;65462;52.148;7.940;2023-02-15T11:28:00;101784.63;;;8.80
76583;BMP280;65462;52.148;7.940;2023-02-15T11:30:42;101779.25;;;8.95
76583;BMP280;65462;52.148;7.940;2023-02-15T11:33:15;101779.63;;;9.12
76583;BMP280;65462;52.148;7.940;2023-02-15T11:35:49;101773.13;;;9.28
76583;BMP280;65462;52.148;7.940;2023-02-15T11:38:22;101760.31;;;9.45
76583;BMP280;65462;52.148;7.940;2023-02-15T11:40:54;101772.31;;;9.56
76583;BMP280;65462;52.148;7.940;2023-02-15T11:43:29;101769.28;;;9.68
76583;BMP280;65462;52.148;7.940;2023-02-15T11:45:56;101766.22;;;9.80
76583;BMP280;65462;52.148;7.940;2023-02-15T11:48:21;101771.38;;;9.90
76583;BMP280;65462;52.148;7.940;2023-02-15T11:50:47;101762.38;;;9.91
76583;BMP280;65462;52.148;7.940;2023-02-15T11:53:15;101761.84;;;9.94
76583;BMP280;65462;52.148;7.940;2023-02-15T11:55:46;101764.38;;;9.99
76583;BMP280;65462;52.148;7.940;2023-02-15T12:01:08;101744.72;;;10.10
76583;BMP280;65462;52.148;7.940;2023-02-15T12:03:47;101742.25;;;10.13
76583;BMP280;65462;52.148;7.940;2023-02-15T12:06:22;101741.91;;;10.20
76583;BMP280;65462;52.148;7.940;2023-02-15T12:09:17;101739.69;;;10.27
76583;BMP280;65462;52.148;7.940;2023-02-15T12:11:45;101730.38;;;10.29
76583;BMP280;65462;52.148;7.940;2023-02-15T12:14:12;101742.75;;;10.34
76583;BMP280;65462;52.148;7.940;2023-02-15T12:16:47;101737.38;;;10.39
76583;BMP280;65462;52.148;7.940;2023-02-15T12:19:41;101730.97;;;10.45
76583;BMP280;65462;52.148;7.940;2023-02-15T12:22:19;101727.63;;;10.53
76583;BMP280;65462;52.148;7.940;2023-02-15T12:24:47;101728.53;;;10.62
76583;BMP280;65462;52.148;7.940;2023-02-15T12:27:18;101725.16;;;10.75
76583;BMP280;65462;52.148;7.940;2023-02-15T12:29:49;101724.78;;;10.82
76583;BMP280;65462;52.148;7.940;2023-02-15T12:32:26;101717.00;;;10.90
76583;BMP280;65462;52.148;7.940;2023-02-15T12:34:59;101719.50;;;10.95
76583;BMP280;65462;52.148;7.940;2023-02-15T12:37:27;101717.47;;;11.06
76583;BMP280;65462;52.148;7.940;2023-02-15T12:39:59;101710.31;;;11.20
76583;BMP280;65462;52.148;7.940;2023-02-15T12:42:26;101712.06;;;11.25
76583;BMP280;65462;52.148;7.940;2023-02-15T12:45:20;101717.19;;;11.35
76583;BMP280;65462;52.148;7.940;2023-02-15T12:47:46;101709.03;;;11.45
76583;BMP280;65462;52.148;7.940;2023-02-15T12:50:23;101698.13;;;11.60
76583;BMP280;65462;52.148;7.940;2023-02-15T12:52:51;101692.38;;;11.80
76583;BMP280;65462;52.148;7.940;2023-02-15T12:57:44;101689.97;;;12.14
76583;BMP280;65462;52.148;7.940;2023-02-15T13:02:47;101676.69;;;12.36
76583;BMP280;65462;52.148;7.940;2023-02-15T13:05:30;101680.75;;;12.65
76583;BMP280;65462;52.148;7.940;2023-02-15T13:07:58;101684.41;;;12.77
76583;BMP280;65462;52.148;7.940;2023-02-15T13:10:28;101679.28;;;12.89
76583;BMP280;65462;52.148;7.940;2023-02-15T13:12:55;101675.41;;;13.04
76583;BMP280;65462;52.148;7.940;2023-02-15T13:17:55;101673.00;;;13.50
76583;BMP280;65462;52.148;7.940;2023-02-15T13:20:22;101668.28;;;13.73
76583;BMP280;65462;52.148;7.940;2023-02-15T13:22:57;101673.13;;;13.88
76583;BMP280;65462;52.148;7.940;2023-02-15T13:25:26;101667.94;;;13.91
76583;BMP280;65462;52.148;7.940;2023-02-15T13:27:54;101666.69;;;13.89
76583;BMP280;65462;52.148;7.940;2023-02-15T13:30:36;101664.22;;;13.92
76583;BMP280;65462;52.148;7.940;2023-02-15T13:33:05;101664.81;;;13.98
76583;BMP280;65462;52.148;7.940;2023-02-15T13:38:39;101653.66;;;14.22
76583;BMP280;65462;52.148;7.940;2023-02-15T13:41:23;101650.16;;;14.38
76583;BMP280;65462;52.148;7.940;2023-02-15T13:46:42;101649.25;;;14.55
76583;BMP280;65462;52.148;7.940;2023-02-15T13:55:00;101631.63;;;14.79
76583;BMP280;65462;52.148;7.940;2023-02-15T13:57:40;101628.63;;;14.81
76583;BMP280;65462;52.148;7.940;2023-02-15T14:02:56;101630.28;;;14.94
76583;BMP280;65462;52.148;7.940;2023-02-15T14:05:45;101635.53;;;15.03
76583;BMP280;65462;52.148;7.940;2023-02-15T14:27:37;101612.25;;;15.32
76583;BMP280;65462;52.148;7.940;2023-02-15T14:29:56;101620.59;;;15.31
76583;BMP280;65462;52.148;7.940;2023-02-15T14:32:42;101628.00;;;15.25
76583;BMP280;65462;52.148;7.940;2023-02-15T14:35:14;101622.69;;;15.25
76583;BMP280;65462;52.148;7.940;2023-02-15T14:40:58;101610.41;;;15.12
76583;BMP280;65462;52.148;7.940;2023-02-15T14:48:58;101601.91;;;14.98
76583;BMP280;65462;52.148;7.940;2023-02-15T14:54:08;101599.31;;;14.90
76583;BMP280;65462;52.148;7.940;2023-02-15T14:56:33;101597.31;;;14.87
76583;BMP280;65462;52.148;7.940;2023-02-15T14:59:03;101600.47;;;14.80
76583;BMP280;65462;52.148;7.940;2023-02-15T15:01:38;101597.69;;;14.76
76583;BMP280;65462;52.148;7.940;2023-02-15T15:04:07;101588.75;;;14.72
76583;BMP280;65462;52.148;7.940;2023-02-15T15:06:35;101595.72;;;14.65
76583;BMP280;65462;52.148;7.940;2023-02-15T15:09:19;101592.31;;;14.56
76583;BMP280;65462;52.148;7.940;2023-02-15T15:11:48;101592.03;;;14.49
76583;BMP280;65462;52.148;7.940;2023-02-15T15:17:00;101582.88;;;14.38
76583;BMP280;65462;52.148;7.940;2023-02-15T15:22:20;101584.75;;;14.37
76583;BMP280;65462;52.148;7.940;2023-02-15T15:24:54;101581.97;;;14.34
76583;BMP280;65462;52.148;7.940;2023-02-15T15:27:40;101580.59;;;14.28
76583;BMP280;65462;52.148;7.940;2023-02-15T15:42:12;101583.25;;;13.81
76583;BMP280;65462;52.148;7.940;2023-02-15T15:44:27;101577.81;;;13.69
76583;BMP280;65462;52.148;7.940;2023-02-15T15:47:18;101584.88;;;13.57
76583;BMP280;65462;52.148;7.940;2023-02-15T15:49:47;101583.47;;;13.42
76583;BMP280;65462;52.148;7.940;2023-02-15T15:52:18;101578.94;;;13.34
76583;BMP280;65462;52.148;7.940;2023-02-15T15:54:46;101576.63;;;13.24
76583;BMP280;65462;52.148;7.940;2023-02-15T15:57:31;101577.56;;;13.11
76583;BMP280;65462;52.148;7.940;2023-02-15T16:00:00;101583.50;;;12.99
76583;BMP280;65462;52.148;7.940;2023-02-15T16:02:31;101569.72;;;12.89
76583;BMP280;65462;52.148;7.940;2023-02-15T16:05:06;101575.31;;;12.79
76583;BMP280;65462;52.148;7.940;2023-02-15T16:07:32;101573.72;;;12.69
76583;BMP280;65462;52.148;7.940;2023-02-15T16:10:01;101578.22;;;12.60
76583;BMP280;65462;52.148;7.940;2023-02-15T16:12:38;101575.09;;;12.49
76583;BMP280;65462;52.148;7.940;2023-02-15T16:15:14;101567.38;;;12.39
76583;BMP280;65462;52.148;7.940;2023-02-15T16:17:41;101561.63;;;12.29
76583;BMP280;65462;52.148;7.940;2023-02-15T16:20:27;101557.34;;;12.19
76583;BMP280;65462;52.148;7.940;2023-02-15T16:23:50;101561.38;;;12.08
76583;BMP280;65462;52.148;7.940;2023-02-15T16:28:32;101559.81;;;11.85
76583;BMP280;65462;52.148;7.940;2023-02-15T16:31:11;101558.41;;;11.79
76583;BMP280;65462;52.148;7.940;2023-02-15T16:33:39;101561.63;;;11.67
76583;BMP280;65462;52.148;7.940;2023-02-15T16:36:05;101559.69;;;11.59
76583;BMP280;65462;52.148;7.940;2023-02-15T16:41:26;101559.41;;;11.39
76583;BMP280;65462;52.148;7.940;2023-02-15T16:43:53;101564.28;;;11.32
76583;BMP280;65462;52.148;7.940;2023-02-15T16:46:26;101569.19;;;11.25
76583;BMP280;65462;52.148;7.940;2023-02-15T16:48:55;101571.00;;;11.16
76583;BMP280;65462;52.148;7.940;2023-02-15T16:51:24;101572.50;;;11.08
76583;BMP280;65462;52.148;7.940;2023-02-15T16:53:51;101567.59;;;11.01
76583;BMP280;65462;52.148;7.940;2023-02-15T16:56:22;101575.91;;;10.95
76583;BMP280;65462;52.148;7.940;2023-02-15T16:58:50;101586.41;;;10.86
76583;BMP280;65462;52.148;7.940;2023-02-15T17:01:20;101570.16;;;10.79
76583;BMP280;65462;52.148;7.940;2023-02-15T17:03:48;101580.91;;;10.69
76583;BMP280;65462;52.148;7.940;2023-02-15T17:06:19;101578.69;;;10.63
76583;BMP280;65462;52.148;7.940;2023-02-15T17:08:45;101573.28;;;10.54
76583;BMP280;65462;52.148;7.940;2023-02-15T17:11:19;101566.38;;;10.45
76583;BMP280;65462;52.148;7.940;2023-02-15T17:16:33;101573.97;;;10.33
76583;BMP280;65462;52.148;7.940;2023-02-15T17:19:01;101568.56;;;10.24